sensor_id;sensor_type;location;lat;lon;timestamp;pressure;altitude;pressure_sealevel;temperature;humidity
40171;BME280;37650;52.790;18.268;2023-02-12T00:00:57;102034.06;;;0.93;100.00
40171;BME280;37650;52.790;18.268;2023-02-12T00:04:18;102037.21;;;0.88;100.00
40171;BME280;37650;52.790;18.268;2023-02-12T00:07:39;102049.69;;;0.83;100.00
40171;BME280;37650;52.790;18.268;2023-02-12T00:11:13;102046.50;;;0.75;100.00
40171;BME280;37650;52.790;18.268;2023-02-12T00:14:38;102051.90;;;0.65;100.00
40171;BME280;37650;52.790;18.268;2023-02-12T00:17:59;102055.84;;;0.58;100.00
40171;BME280;37650;52.790;18.268;2023-02-12T00:21:20;102054.02;;;0.49;100.00
40171;BME280;37650;52.790;18.268;2023-02-12T00:24:41;102064.26;;;0.40;100.00
40171;BME280;37650;52.790;18.268;2023-02-12T00:28:03;102068.64;;;0.31;100.00
40171;BME280;37650;52.790;18.268;2023-02-12T00:31:26;102067.80;;;0.26;100.00
40171;BME280;37650;52.790;18.268;2023-02-12T00:34:50;102076.97;;;0.27;100.00
40171;BME280;37650;52.790;18.268;2023-02-12T00:38:10;102088.06;;;0.23;100.00
40171;BME280;37650;52.790;18.268;2023-02-12T00:41:31;102096.88;;;0.18;100.00
40171;BME280;37650;52.790;18.268;2023-02-12T00:44:52;102104.60;;;0.16;100.00
40171;BME280;37650;52.790;18.268;2023-02-12T00:48:14;102108.77;;;0.12;100.00
40171;BME280;37650;52.790;18.268;2023-02-12T00:51:35;102120.48;;;0.07;100.00
40171;BME280;37650;52.790;18.268;2023-02-12T00:54:56;102128.77;;;0.02;100.00
40171;BME280;37650;52.790;18.268;2023-02-12T00:58:17;102136.30;;;-0.00;100.00
40171;BME280;37650;52.790;18.268;2023-02-12T01:01:38;102135.01;;;-0.03;100.00
40171;BME280;37650;52.790;18.268;2023-02-12T01:04:59;102135.58;;;-0.07;100.00
40171;BME280;37650;52.790;18.268;2023-02-12T01:08:20;102140.52;;;-0.09;100.00
40171;BME280;37650;52.790;18.268;2023-02-12T01:11:41;102141.88;;;-0.14;100.00
40171;BME280;37650;52.790;18.268;2023-02-12T01:15:02;102139.59;;;-0.20;100.00
40171;BME280;37650;52.790;18.268;2023-02-12T01:18:23;102143.04;;;-0.25;100.00
40171;BME280;37650;52.790;18.268;2023-02-12T01:21:44;102146.17;;;-0.29;100.00
40171;BME280;37650;52.790;18.268;2023-02-12T01:25:06;102140.17;;;-0.28;100.00
40171;BME280;37650;52.790;18.268;2023-02-12T01:28:27;102149.13;;;-0.29;100.00
40171;BME280;37650;52.790;18.268;2023-02-12T01:31:48;102161.71;;;-0.28;100.00
40171;BME280;37650;52.790;18.268;2023-02-12T01:35:11;102167.49;;;-0.31;100.00
40171;BME280;37650;52.790;18.268;2023-02-12T01:38:34;102168.37;;;-0.35;100.00
40171;BME280;37650;52.790;18.268;2023-02-12T01:41:55;102172.86;;;-0.40;100.00
40171;BME280;37650;52.790;18.268;2023-02-12T01:45:33;102182.38;;;-0.44;100.00
40171;BME280;37650;52.790;18.268;2023-02-12T01:49:02;102188.19;;;-0.50;100.00
40171;BME280;37650;52.790;18.268;2023-02-12T01:52:29;102190.47;;;-0.54;100.00
40171;BME280;37650;52.790;18.268;2023-02-12T01:55:55;102191.22;;;-0.52;100.00
40171;BME280;37650;52.790;18.268;2023-02-12T01:59:19;102196.55;;;-0.48;100.00
40171;BME280;37650;52.790;18.268;2023-02-12T02:02:41;102192.50;;;-0.45;100.00
40171;BME280;37650;52.790;18.268;2023-02-12T02:06:07;102190.04;;;-0.47;100.00
40171;BME280;37650;52.790;18.268;2023-02-12T02:09:32;102197.37;;;-0.54;100.00
40171;BME280;37650;52.790;18.268;2023-02-12T02:12:55;102196.53;;;-0.62;100.00
40171;BME280;37650;52.790;18.268;2023-02-12T02:16:35;102199.16;;;-0.70;100.00
40171;BME280;37650;52.790;18.268;2023-02-12T02:27:15;102211.29;;;-0.77;100.00
40171;BME280;37650;52.790;18.268;2023-02-12T02:30:47;102210.30;;;-0.76;100.00
40171;BME280;37650;52.790;18.268;2023-02-12T02:34:56;102213.11;;;-0.79;100.00
40171;BME280;37650;52.790;18.268;2023-02-12T02:38:06;102213.00;;;-0.87;100.00
40171;BME280;37650;52.790;18.268;2023-02-12T02:41:43;102224.64;;;-0.93;100.00
40171;BME280;37650;52.790;18.268;2023-02-12T02:45:15;102226.13;;;-0.99;100.00
40171;BME280;37650;52.790;18.268;2023-02-12T02:48:46;102227.85;;;-1.03;100.00
40171;BME280;37650;52.790;18.268;2023-02-12T02:52:13;102237.34;;;-1.07;100.00
40171;BME280;37650;52.790;18.268;2023-02-12T02:55:43;102239.58;;;-1.11;100.00
40171;BME280;37650;52.790;18.268;2023-02-12T02:59:10;102243.88;;;-1.11;100.00
40171;BME280;37650;52.790;18.268;2023-02-12T03:02:39;102244.02;;;-1.08;100.00
40171;BME280;37650;52.790;18.268;2023-02-12T03:06:10;102250.05;;;-1.08;100.00
40171;BME280;37650;52.790;18.268;2023-02-12T03:09:46;102252.48;;;-1.12;100.00
40171;BME280;37650;52.790;18.268;2023-02-12T03:13:22;102259.20;;;-1.16;100.00
40171;BME280;37650;52.790;18.268;2023-02-12T03:16:53;102268.67;;;-1.24;100.00
40171;BME280;37650;52.790;18.268;2023-02-12T03:20:28;102274.48;;;-1.30;100.00
40171;BME280;37650;52.790;18.268;2023-02-12T03:23:58;102277.83;;;-1.33;100.00
40171;BME280;37650;52.790;18.268;2023-02-12T03:27:46;102284.00;;;-1.37;100.00
40171;BME280;37650;52.790;18.268;2023-02-12T03:31:35;102287.25;;;-1.42;100.00
40171;BME280;37650;52.790;18.268;2023-02-12T03:38:51;102294.80;;;-1.38;100.00
40171;BME280;37650;52.790;18.268;2023-02-12T03:42:31;102301.83;;;-1.43;100.00
40171;BME280;37650;52.790;18.268;2023-02-12T03:46:19;102307.73;;;-1.53;100.00
40171;BME280;37650;52.790;18.268;2023-02-12T03:53:13;102312.38;;;-1.58;100.00
40171;BME280;37650;52.790;18.268;2023-02-12T03:56:50;102321.55;;;-1.52;100.00
40171;BME280;37650;52.790;18.268;2023-02-12T04:00:31;102328.66;;;-1.51;100.00
40171;BME280;37650;52.790;18.268;2023-02-12T04:03:52;102333.96;;;-1.56;100.00
40171;BME280;37650;52.790;18.268;2023-02-12T04:07:13;102337.27;;;-1.55;100.00
40171;BME280;37650;52.790;18.268;2023-02-12T04:10:45;102340.91;;;-1.51;100.00
40171;BME280;37650;52.790;18.268;2023-02-12T04:14:40;102341.73;;;-1.56;100.00
40171;BME280;37650;52.790;18.268;2023-02-12T04:18:21;102348.77;;;-1.64;100.00
40171;BME280;37650;52.790;18.268;2023-02-12T04:25:20;102356.77;;;-1.74;100.00
40171;BME280;37650;52.790;18.268;2023-02-12T04:32:46;102362.19;;;-1.79;100.00
40171;BME280;37650;52.790;18.268;2023-02-12T04:36:14;102367.24;;;-1.82;100.00
40171;BME280;37650;52.790;18.268;2023-02-12T04:39:38;102367.23;;;-1.86;100.00
40171;BME280;37650;52.790;18.268;2023-02-12T04:43:00;102374.98;;;-1.89;100.00
40171;BME280;37650;52.790;18.268;2023-02-12T04:46:21;102378.28;;;-1.96;100.00
40171;BME280;37650;52.790;18.268;2023-02-12T04:49:42;102383.26;;;-2.00;100.00
40171;BME280;37650;52.790;18.268;2023-02-12T04:53:03;102386.09;;;-2.02;100.00
40171;BME280;37650;52.790;18.268;2023-02-12T04:56:23;102390.48;;;-2.04;100.00
40171;BME280;37650;52.790;18.268;2023-02-12T04:59:45;102392.02;;;-2.00;100.00
40171;BME280;37650;52.790;18.268;2023-02-12T05:03:06;102391.60;;;-1.91;100.00
40171;BME280;37650;52.790;18.268;2023-02-12T05:06:27;102393.83;;;-1.83;100.00
40171;BME280;37650;52.790;18.268;2023-02-12T05:09:50;102401.17;;;-1.81;100.00
40171;BME280;37650;52.790;18.268;2023-02-12T05:13:11;102407.80;;;-1.79;100.00
40171;BME280;37650;52.790;18.268;2023-02-12T05:16:32;102406.33;;;-1.81;100.00
40171;BME280;37650;52.790;18.268;2023-02-12T05:19:53;102410.07;;;-1.86;100.00
40171;BME280;37650;52.790;18.268;2023-02-12T05:23:14;102415.14;;;-1.91;100.00
40171;BME280;37650;52.790;18.268;2023-02-12T05:26:35;102420.71;;;-1.94;100.00
40171;BME280;37650;52.790;18.268;2023-02-12T05:29:56;102420.66;;;-1.95;100.00
40171;BME280;37650;52.790;18.268;2023-02-12T05:33:17;102422.64;;;-1.93;100.00
40171;BME280;37650;52.790;18.268;2023-02-12T05:36:39;102422.05;;;-1.90;100.00
40171;BME280;37650;52.790;18.268;2023-02-12T05:40:00;102426.96;;;-1.92;100.00
40171;BME280;37650;52.790;18.268;2023-02-12T05:43:21;102429.83;;;-1.97;100.00
40171;BME280;37650;52.790;18.268;2023-02-12T05:46:42;102430.34;;;-2.01;100.00
40171;BME280;37650;52.790;18.268;2023-02-12T05:50:03;102429.17;;;-2.04;100.00
40171;BME280;37650;52.790;18.268;2023-02-12T05:53:25;102440.25;;;-2.10;100.00
40171;BME280;37650;52.790;18.268;2023-02-12T05:56:46;102445.60;;;-2.13;100.00
40171;BME280;37650;52.790;18.268;2023-02-12T06:00:08;102449.13;;;-2.11;100.00
40171;BME280;37650;52.790;18.268;2023-02-12T06:03:32;102459.13;;;-2.07;100.00
40171;BME280;37650;52.790;18.268;2023-02-12T06:06:54;102462.02;;;-2.04;100.00
40171;BME280;37650;52.790;18.268;2023-02-12T06:10:15;102463.92;;;-2.07;100.00
40171;BME280;37650;52.790;18.268;2023-02-12T06:13:36;102470.02;;;-2.13;100.00
40171;BME280;37650;52.790;18.268;2023-02-12T06:16:57;102474.40;;;-2.15;100.00
40171;BME280;37650;52.790;18.268;2023-02-12T06:20:18;102482.17;;;-2.14;100.00
40171;BME280;37650;52.790;18.268;2023-02-12T06:23:39;102487.96;;;-2.12;100.00
40171;BME280;37650;52.790;18.268;2023-02-12T06:27:00;102489.84;;;-2.05;100.00
40171;BME280;37650;52.790;18.268;2023-02-12T06:30:20;102497.81;;;-2.00;100.00
40171;BME280;37650;52.790;18.268;2023-02-12T06:33:41;102500.55;;;-1.97;100.00
40171;BME280;37650;52.790;18.268;2023-02-12T06:37:02;102507.45;;;-1.93;100.00
40171;BME280;37650;52.790;18.268;2023-02-12T06:40:23;102507.96;;;-1.93;100.00
40171;BME280;37650;52.790;18.268;2023-02-12T06:43:45;102508.41;;;-1.94;100.00
40171;BME280;37650;52.790;18.268;2023-02-12T06:47:05;102509.49;;;-1.93;100.00
40171;BME280;37650;52.790;18.268;2023-02-12T06:50:28;102509.30;;;-1.83;100.00
40171;BME280;37650;52.790;18.268;2023-02-12T06:53:51;102507.10;;;-1.75;100.00
40171;BME280;37650;52.790;18.268;2023-02-12T06:57:13;102501.61;;;-1.59;100.00
40171;BME280;37650;52.790;18.268;2023-02-12T07:00:34;102498.98;;;-1.42;100.00
40171;BME280;37650;52.790;18.268;2023-02-12T07:03:59;102503.13;;;-1.38;100.00
40171;BME280;37650;52.790;18.268;2023-02-12T07:07:21;102511.02;;;-1.35;100.00
40171;BME280;37650;52.790;18.268;2023-02-12T07:10:42;102516.23;;;-1.26;100.00
40171;BME280;37650;52.790;18.268;2023-02-12T07:14:14;102519.34;;;-1.10;100.00
40171;BME280;37650;52.790;18.268;2023-02-12T07:17:35;102523.91;;;-0.97;100.00
40171;BME280;37650;52.790;18.268;2023-02-12T07:20:56;102529.22;;;-0.90;100.00
40171;BME280;37650;52.790;18.268;2023-02-12T07:24:17;102536.95;;;-0.74;100.00
40171;BME280;37650;52.790;18.268;2023-02-12T07:27:38;102537.02;;;-0.32;100.00
40171;BME280;37650;52.790;18.268;2023-02-12T07:31:05;102543.29;;;0.33;100.00
40171;BME280;37650;52.790;18.268;2023-02-12T07:34:27;102542.79;;;0.74;100.00
40171;BME280;37650;52.790;18.268;2023-02-12T07:37:48;102551.52;;;0.90;100.00
40171;BME280;37650;52.790;18.268;2023-02-12T07:41:14;102559.99;;;0.86;100.00
40171;BME280;37650;52.790;18.268;2023-02-12T07:44:36;102555.25;;;0.94;100.00
40171;BME280;37650;52.790;18.268;2023-02-12T07:47:57;102557.96;;;1.01;100.00
40171;BME280;37650;52.790;18.268;2023-02-12T07:51:18;102563.33;;;1.02;100.00
40171;BME280;37650;52.790;18.268;2023-02-12T07:54:39;102560.59;;;1.07;100.00
40171;BME280;37650;52.790;18.268;2023-02-12T07:58:00;102559.16;;;1.30;100.00
40171;BME280;37650;52.790;18.268;2023-02-12T08:01:29;102558.44;;;1.59;100.00
40171;BME280;37650;52.790;18.268;2023-02-12T08:04:57;102559.74;;;1.87;100.00
40171;BME280;37650;52.790;18.268;2023-02-12T08:08:18;102559.66;;;2.38;100.00
40171;BME280;37650;52.790;18.268;2023-02-12T08:11:40;102561.54;;;2.95;100.00
40171;BME280;37650;52.790;18.268;2023-02-12T08:15:01;102562.37;;;3.56;100.00
40171;BME280;37650;52.790;18.268;2023-02-12T08:18:22;102566.38;;;4.12;100.00
40171;BME280;37650;52.790;18.268;2023-02-12T08:21:43;102559.73;;;4.78;100.00
40171;BME280;37650;52.790;18.268;2023-02-12T08:25:05;102559.50;;;4.92;100.00
40171;BME280;37650;52.790;18.268;2023-02-12T08:28:26;102562.92;;;4.74;100.00
40171;BME280;37650;52.790;18.268;2023-02-12T08:31:49;102570.48;;;4.77;100.00
40171;BME280;37650;52.790;18.268;2023-02-12T08:35:10;102560.63;;;4.97;100.00
40171;BME280;37650;52.790;18.268;2023-02-12T08:38:32;102569.78;;;4.84;100.00
40171;BME280;37650;52.790;18.268;2023-02-12T08:41:54;102561.77;;;4.93;100.00
40171;BME280;37650;52.790;18.268;2023-02-12T08:45:15;102554.33;;;4.86;100.00
40171;BME280;37650;52.790;18.268;2023-02-12T08:48:36;102561.69;;;4.73;100.00
40171;BME280;37650;52.790;18.268;2023-02-12T08:51:58;102563.31;;;4.60;100.00
40171;BME280;37650;52.790;18.268;2023-02-12T08:55:21;102565.54;;;4.50;100.00
40171;BME280;37650;52.790;18.268;2023-02-12T08:58:42;102564.89;;;4.60;100.00
40171;BME280;37650;52.790;18.268;2023-02-12T09:02:04;102573.05;;;4.67;100.00
40171;BME280;37650;52.790;18.268;2023-02-12T09:05:27;102577.33;;;4.96;100.00
40171;BME280;37650;52.790;18.268;2023-02-12T09:08:49;102575.16;;;5.35;100.00
40171;BME280;37650;52.790;18.268;2023-02-12T09:12:10;102575.08;;;5.68;100.00
40171;BME280;37650;52.790;18.268;2023-02-12T09:15:38;102575.73;;;6.15;100.00
40171;BME280;37650;52.790;18.268;2023-02-12T09:18:59;102581.55;;;6.08;100.00
40171;BME280;37650;52.790;18.268;2023-02-12T09:22:20;102585.34;;;6.05;100.00
40171;BME280;37650;52.790;18.268;2023-02-12T09:25:43;102588.38;;;6.44;100.00
40171;BME280;37650;52.790;18.268;2023-02-12T09:29:04;102591.63;;;6.52;100.00
40171;BME280;37650;52.790;18.268;2023-02-12T09:32:25;102594.20;;;6.25;100.00
40171;BME280;37650;52.790;18.268;2023-02-12T09:35:47;102599.10;;;5.87;100.00
40171;BME280;37650;52.790;18.268;2023-02-12T09:39:08;102591.46;;;5.98;100.00
40171;BME280;37650;52.790;18.268;2023-02-12T09:46:04;102589.68;;;6.05;100.00
40171;BME280;37650;52.790;18.268;2023-02-12T09:52:49;102577.40;;;6.32;100.00
40171;BME280;37650;52.790;18.268;2023-02-12T09:56:16;102575.83;;;6.44;100.00
40171;BME280;37650;52.790;18.268;2023-02-12T09:59:53;102576.92;;;6.84;100.00
40171;BME280;37650;52.790;18.268;2023-02-12T10:03:18;102582.45;;;6.94;100.00
40171;BME280;37650;52.790;18.268;2023-02-12T10:06:50;102578.73;;;7.18;100.00
40171;BME280;37650;52.790;18.268;2023-02-12T10:14:13;102572.39;;;7.96;100.00
40171;BME280;37650;52.790;18.268;2023-02-12T10:17:58;102571.66;;;8.15;99.98
40171;BME280;37650;52.790;18.268;2023-02-12T10:25:46;102568.17;;;8.66;99.26
40171;BME280;37650;52.790;18.268;2023-02-12T10:29:16;102563.98;;;8.99;97.52
40171;BME280;37650;52.790;18.268;2023-02-12T10:32:40;102569.05;;;9.03;98.16
40171;BME280;37650;52.790;18.268;2023-02-12T10:36:36;102571.10;;;8.12;97.13
40171;BME280;37650;52.790;18.268;2023-02-12T10:40:00;102575.67;;;7.57;98.06
40171;BME280;37650;52.790;18.268;2023-02-12T10:43:25;102582.80;;;6.81;99.58
40171;BME280;37650;52.790;18.268;2023-02-12T10:46:46;102585.85;;;6.16;100.00
40171;BME280;37650;52.790;18.268;2023-02-12T10:50:24;102586.45;;;5.53;100.00
40171;BME280;37650;52.790;18.268;2023-02-12T10:53:48;102587.17;;;5.10;100.00
40171;BME280;37650;52.790;18.268;2023-02-12T11:00:34;102593.13;;;4.41;100.00
40171;BME280;37650;52.790;18.268;2023-02-12T11:03:57;102586.64;;;4.09;100.00
40171;BME280;37650;52.790;18.268;2023-02-12T11:07:20;102587.20;;;3.83;100.00
40171;BME280;37650;52.790;18.268;2023-02-12T11:10:41;102589.79;;;3.62;100.00
40171;BME280;37650;52.790;18.268;2023-02-12T11:14:04;102583.91;;;3.44;100.00
40171;BME280;37650;52.790;18.268;2023-02-12T11:17:40;102577.33;;;3.38;100.00
40171;BME280;37650;52.790;18.268;2023-02-12T11:21:09;102576.98;;;3.26;100.00
40171;BME280;37650;52.790;18.268;2023-02-12T11:24:33;102584.89;;;3.29;100.00
40171;BME280;37650;52.790;18.268;2023-02-12T11:28:03;102581.33;;;3.32;100.00
40171;BME280;37650;52.790;18.268;2023-02-12T11:31:28;102579.58;;;3.25;100.00
40171;BME280;37650;52.790;18.268;2023-02-12T11:35:17;102584.02;;;3.17;100.00
40171;BME280;37650;52.790;18.268;2023-02-12T11:39:02;102578.92;;;3.15;100.00
40171;BME280;37650;52.790;18.268;2023-02-12T11:42:25;102575.36;;;3.12;100.00
40171;BME280;37650;52.790;18.268;2023-02-12T11:45:50;102567.84;;;3.15;100.00
40171;BME280;37650;52.790;18.268;2023-02-12T11:49:20;102569.90;;;3.08;100.00
40171;BME280;37650;52.790;18.268;2023-02-12T11:52:42;102575.34;;;2.98;100.00
40171;BME280;37650;52.790;18.268;2023-02-12T11:56:09;102576.11;;;2.95;100.00
40171;BME280;37650;52.790;18.268;2023-02-12T11:59:36;102572.73;;;2.98;100.00
40171;BME280;37650;52.790;18.268;2023-02-12T12:06:49;102569.93;;;3.04;100.00
40171;BME280;37650;52.790;18.268;2023-02-12T12:10:16;102564.98;;;3.07;100.00
40171;BME280;37650;52.790;18.268;2023-02-12T12:13:50;102558.08;;;3.07;100.00
40171;BME280;37650;52.790;18.268;2023-02-12T12:17:15;102549.30;;;3.16;100.00
40171;BME280;37650;52.790;18.268;2023-02-12T12:24:55;102545.14;;;3.22;100.00
40171;BME280;37650;52.790;18.268;2023-02-12T12:28:29;102541.64;;;3.21;100.00
40171;BME280;37650;52.790;18.268;2023-02-12T12:32:02;102539.53;;;3.27;100.00
40171;BME280;37650;52.790;18.268;2023-02-12T12:35:52;102535.24;;;3.28;100.00
40171;BME280;37650;52.790;18.268;2023-02-12T12:39:35;102524.48;;;3.28;100.00
40171;BME280;37650;52.790;18.268;2023-02-12T12:57:42;102501.47;;;3.44;100.00
40171;BME280;37650;52.790;18.268;2023-02-12T13:09:58;102492.76;;;3.62;100.00
40171;BME280;37650;52.790;18.268;2023-02-12T13:13:03;102486.70;;;3.62;100.00
40171;BME280;37650;52.790;18.268;2023-02-12T13:16:45;102486.21;;;3.65;100.00
40171;BME280;37650;52.790;18.268;2023-02-12T13:24:02;102477.83;;;3.69;100.00
40171;BME280;37650;52.790;18.268;2023-02-12T13:27:36;102474.56;;;3.70;100.00
40171;BME280;37650;52.790;18.268;2023-02-12T13:31:05;102480.50;;;3.72;100.00
40171;BME280;37650;52.790;18.268;2023-02-12T13:34:29;102477.02;;;3.71;100.00
40171;BME280;37650;52.790;18.268;2023-02-12T13:37:53;102476.06;;;3.68;100.00
40171;BME280;37650;52.790;18.268;2023-02-12T13:41:17;102485.80;;;3.69;100.00
40171;BME280;37650;52.790;18.268;2023-02-12T13:44:49;102487.92;;;3.70;100.00
40171;BME280;37650;52.790;18.268;2023-02-12T13:52:15;102482.89;;;3.70;100.00
40171;BME280;37650;52.790;18.268;2023-02-12T14:03:07;102472.48;;;3.70;100.00
40171;BME280;37650;52.790;18.268;2023-02-12T14:06:30;102470.95;;;3.72;100.00
40171;BME280;37650;52.790;18.268;2023-02-12T14:13:21;102472.32;;;3.71;100.00
40171;BME280;37650;52.790;18.268;2023-02-12T14:16:48;102471.23;;;3.69;100.00
40171;BME280;37650;52.790;18.268;2023-02-12T14:20:35;102472.28;;;3.70;100.00
40171;BME280;37650;52.790;18.268;2023-02-12T14:31:55;102473.96;;;3.67;100.00
40171;BME280;37650;52.790;18.268;2023-02-12T14:39:25;102472.14;;;3.71;100.00
40171;BME280;37650;52.790;18.268;2023-02-12T14:42:55;102477.80;;;3.68;100.00
40171;BME280;37650;52.790;18.268;2023-02-12T14:49:50;102475.77;;;3.64;100.00
40171;BME280;37650;52.790;18.268;2023-02-12T14:53:30;102476.82;;;3.64;100.00
40171;BME280;37650;52.790;18.268;2023-02-12T14:56:53;102478.30;;;3.66;100.00
40171;BME280;37650;52.790;18.268;2023-02-12T15:03:51;102475.48;;;3.72;100.00
40171;BME280;37650;52.790;18.268;2023-02-12T15:08:04;102476.88;;;3.72;100.00
40171;BME280;37650;52.790;18.268;2023-02-12T15:15:26;102465.34;;;3.69;100.00
40171;BME280;37650;52.790;18.268;2023-02-12T15:19:00;102459.98;;;3.70;100.00
40171;BME280;37650;52.790;18.268;2023-02-12T15:22:40;102459.83;;;3.71;100.00
40171;BME280;37650;52.790;18.268;2023-02-12T15:26:04;102463.48;;;3.71;100.00
40171;BME280;37650;52.790;18.268;2023-02-12T15:29:40;102468.02;;;3.72;100.00
40171;BME280;37650;52.790;18.268;2023-02-12T15:33:05;102476.35;;;3.72;100.00
40171;BME280;37650;52.790;18.268;2023-02-12T15:36:31;102476.38;;;3.73;100.00
40171;BME280;37650;52.790;18.268;2023-02-12T15:39:59;102471.95;;;3.77;100.00
40171;BME280;37650;52.790;18.268;2023-02-12T15:43:28;102466.61;;;3.78;100.00
40171;BME280;37650;52.790;18.268;2023-02-12T15:50:23;102464.76;;;3.74;100.00
40171;BME280;37650;52.790;18.268;2023-02-12T15:53:46;102460.76;;;3.73;100.00
40171;BME280;37650;52.790;18.268;2023-02-12T15:57:11;102455.75;;;3.75;100.00
40171;BME280;37650;52.790;18.268;2023-02-12T16:00:42;102459.27;;;3.76;100.00
40171;BME280;37650;52.790;18.268;2023-02-12T16:04:06;102461.39;;;3.78;100.00
40171;BME280;37650;52.790;18.268;2023-02-12T16:07:34;102464.45;;;3.76;100.00
40171;BME280;37650;52.790;18.268;2023-02-12T16:10:58;102474.88;;;3.76;100.00
40171;BME280;37650;52.790;18.268;2023-02-12T16:18:04;102482.77;;;3.78;100.00
40171;BME280;37650;52.790;18.268;2023-02-12T16:21:28;102482.77;;;3.80;100.00
40171;BME280;37650;52.790;18.268;2023-02-12T16:24:52;102483.69;;;3.82;100.00
40171;BME280;37650;52.790;18.268;2023-02-12T16:28:19;102480.42;;;3.83;100.00
40171;BME280;37650;52.790;18.268;2023-02-12T16:32:00;102478.88;;;3.83;100.00
40171;BME280;37650;52.790;18.268;2023-02-12T16:35:29;102479.39;;;3.83;100.00
40171;BME280;37650;52.790;18.268;2023-02-12T16:39:01;102478.11;;;3.80;100.00
40171;BME280;37650;52.790;18.268;2023-02-12T16:42:24;102477.73;;;3.79;100.00
40171;BME280;37650;52.790;18.268;2023-02-12T16:45:50;102474.80;;;3.80;100.00
40171;BME280;37650;52.790;18.268;2023-02-12T16:49:15;102478.35;;;3.84;100.00
40171;BME280;37650;52.790;18.268;2023-02-12T16:52:39;102474.27;;;3.87;100.00
40171;BME280;37650;52.790;18.268;2023-02-12T16:56:03;102469.94;;;3.88;100.00
40171;BME280;37650;52.790;18.268;2023-02-12T16:59:28;102467.34;;;3.88;100.00
40171;BME280;37650;52.790;18.268;2023-02-12T17:02:54;102465.27;;;3.88;100.00
40171;BME280;37650;52.790;18.268;2023-02-12T17:06:21;102467.04;;;3.90;100.00
40171;BME280;37650;52.790;18.268;2023-02-12T17:09:46;102459.59;;;3.91;100.00
40171;BME280;37650;52.790;18.268;2023-02-12T17:13:11;102461.25;;;3.95;100.00
40171;BME280;37650;52.790;18.268;2023-02-12T17:16:35;102458.63;;;3.94;100.00
40171;BME280;37650;52.790;18.268;2023-02-12T17:19:56;102460.67;;;3.93;100.00
40171;BME280;37650;52.790;18.268;2023-02-12T17:23:19;102465.34;;;3.92;100.00
40171;BME280;37650;52.790;18.268;2023-02-12T17:26:41;102475.06;;;3.91;100.00
40171;BME280;37650;52.790;18.268;2023-02-12T17:30:04;102471.74;;;3.91;100.00
40171;BME280;37650;52.790;18.268;2023-02-12T17:33:28;102475.80;;;3.93;100.00
40171;BME280;37650;52.790;18.268;2023-02-12T17:36:52;102473.94;;;3.95;100.00
40171;BME280;37650;52.790;18.268;2023-02-12T17:40:17;102476.52;;;3.95;100.00
40171;BME280;37650;52.790;18.268;2023-02-12T17:43:39;102473.74;;;3.94;100.00
40171;BME280;37650;52.790;18.268;2023-02-12T17:47:01;102472.70;;;3.94;100.00
40171;BME280;37650;52.790;18.268;2023-02-12T17:50:25;102473.42;;;3.95;100.00
40171;BME280;37650;52.790;18.268;2023-02-12T17:53:47;102470.67;;;3.97;100.00
40171;BME280;37650;52.790;18.268;2023-02-12T17:57:10;102470.90;;;3.99;100.00
40171;BME280;37650;52.790;18.268;2023-02-12T18:00:35;102466.86;;;3.97;100.00
40171;BME280;37650;52.790;18.268;2023-02-12T18:04:00;102468.35;;;3.94;100.00
40171;BME280;37650;52.790;18.268;2023-02-12T18:07:24;102467.45;;;3.93;100.00
40171;BME280;37650;52.790;18.268;2023-02-12T18:10:46;102475.50;;;3.95;100.00
40171;BME280;37650;52.790;18.268;2023-02-12T18:14:10;102472.41;;;3.97;100.00
40171;BME280;37650;52.790;18.268;2023-02-12T18:17:34;102468.36;;;3.95;100.00
40171;BME280;37650;52.790;18.268;2023-02-12T18:20:57;102462.41;;;3.92;100.00
40171;BME280;37650;52.790;18.268;2023-02-12T18:24:19;102449.16;;;3.90;100.00
40171;BME280;37650;52.790;18.268;2023-02-12T18:27:43;102446.55;;;3.90;100.00
40171;BME280;37650;52.790;18.268;2023-02-12T18:31:07;102447.92;;;3.89;100.00
40171;BME280;37650;52.790;18.268;2023-02-12T18:34:29;102442.70;;;3.88;100.00
40171;BME280;37650;52.790;18.268;2023-02-12T18:37:53;102440.90;;;3.86;100.00
40171;BME280;37650;52.790;18.268;2023-02-12T18:41:21;102440.63;;;3.82;100.00
40171;BME280;37650;52.790;18.268;2023-02-12T18:44:45;102438.89;;;3.81;100.00
40171;BME280;37650;52.790;18.268;2023-02-12T18:48:11;102433.28;;;3.79;100.00
40171;BME280;37650;52.790;18.268;2023-02-12T18:51:33;102428.62;;;3.80;100.00
40171;BME280;37650;52.790;18.268;2023-02-12T18:55:01;102424.34;;;3.82;100.00
40171;BME280;37650;52.790;18.268;2023-02-12T18:58:25;102428.15;;;3.82;100.00
40171;BME280;37650;52.790;18.268;2023-02-12T19:01:53;102427.21;;;3.79;100.00
40171;BME280;37650;52.790;18.268;2023-02-12T19:05:16;102430.86;;;3.79;100.00
40171;BME280;37650;52.790;18.268;2023-02-12T19:08:39;102431.80;;;3.83;100.00
40171;BME280;37650;52.790;18.268;2023-02-12T19:12:02;102435.71;;;3.87;100.00
40171;BME280;37650;52.790;18.268;2023-02-12T19:15:32;102436.29;;;3.89;100.00
40171;BME280;37650;52.790;18.268;2023-02-12T19:18:55;102436.29;;;3.89;100.00
40171;BME280;37650;52.790;18.268;2023-02-12T19:22:24;102436.27;;;3.88;100.00
40171;BME280;37650;52.790;18.268;2023-02-12T19:25:46;102433.02;;;3.90;100.00
40171;BME280;37650;52.790;18.268;2023-02-12T19:29:08;102431.67;;;3.92;100.00
40171;BME280;37650;52.790;18.268;2023-02-12T19:32:31;102436.06;;;3.94;100.00
40171;BME280;37650;52.790;18.268;2023-02-12T19:35:53;102434.33;;;3.94;100.00
40171;BME280;37650;52.790;18.268;2023-02-12T19:39:22;102440.42;;;3.95;100.00